createdAt,value
2022-10-29T00:02:06.951Z,7.40
2022-10-29T00:04:33.598Z,7.47
2022-10-29T00:07:00.353Z,7.49
2022-10-29T00:09:27.000Z,7.49
2022-10-29T00:11:53.614Z,7.37
2022-10-29T00:14:20.257Z,7.43
2022-10-29T00:16:46.964Z,7.36
2022-10-29T00:19:13.574Z,7.33
2022-10-29T00:21:40.652Z,7.35
2022-10-29T00:24:09.575Z,7.38
2022-10-29T00:26:36.345Z,7.11
2022-10-29T00:29:03.213Z,7.26
2022-10-29T00:31:31.148Z,7.19
2022-10-29T00:33:57.833Z,7.13
2022-10-29T00:36:27.010Z,7.17
2022-10-29T00:38:53.814Z,7.15
2022-10-29T00:41:23.043Z,7.20
2022-10-29T00:44:11.035Z,7.20
2022-10-29T00:49:10.207Z,7.15
2022-10-29T00:51:37.349Z,7.21
2022-10-29T00:54:07.164Z,7.04
2022-10-29T00:56:37.078Z,7.01
2022-10-29T00:59:05.602Z,7.06
2022-10-29T01:01:32.413Z,7.11
2022-10-29T01:04:00.310Z,7.10
2022-10-29T01:06:28.669Z,7.07
2022-10-29T01:08:55.335Z,6.99
2022-10-29T01:11:36.720Z,7.06
2022-10-29T01:14:27.932Z,6.98
2022-10-29T01:17:20.390Z,7.01
2022-10-29T01:20:05.497Z,7.06
2022-10-29T01:22:35.233Z,6.83
2022-10-29T01:25:32.782Z,6.76
2022-10-29T01:28:14.448Z,6.64
2022-10-29T01:30:53.176Z,6.61
2022-10-29T01:33:32.519Z,6.66
2022-10-29T01:36:12.374Z,6.74
2022-10-29T01:38:54.266Z,6.76
2022-10-29T01:41:25.837Z,6.82
2022-10-29T01:44:15.598Z,6.85
2022-10-29T01:46:52.607Z,6.79
2022-10-29T01:49:24.934Z,6.91
2022-10-29T01:51:52.778Z,6.93
2022-10-29T01:54:19.520Z,6.76
2022-10-29T01:56:57.117Z,6.82
2022-10-29T01:59:35.717Z,6.97
2022-10-29T02:02:33.296Z,7.01
2022-10-29T02:05:08.957Z,6.91
2022-10-29T02:07:55.015Z,6.97
2022-10-29T02:10:38.362Z,6.88
2022-10-29T02:13:05.086Z,6.99
2022-10-29T02:15:34.913Z,7.06
2022-10-29T02:18:03.303Z,7.05
2022-10-29T02:20:30.383Z,7.02
2022-10-29T02:22:57.464Z,7.04
2022-10-29T02:25:24.362Z,7.04
2022-10-29T02:27:51.085Z,7.11
2022-10-29T02:30:17.988Z,7.05
2022-10-29T02:32:44.768Z,7.00
2022-10-29T02:35:11.542Z,6.80
2022-10-29T02:37:38.269Z,6.76
2022-10-29T02:40:05.427Z,6.71
2022-10-29T02:42:32.124Z,6.92
2022-10-29T02:44:58.872Z,6.86
2022-10-29T02:47:25.522Z,6.81
2022-10-29T02:49:52.317Z,6.72
2022-10-29T02:52:19.016Z,6.74
2022-10-29T02:54:45.688Z,6.64
2022-10-29T02:57:12.423Z,6.69
2022-10-29T02:59:39.167Z,6.69
2022-10-29T03:02:06.028Z,6.76
2022-10-29T03:04:33.296Z,6.68
2022-10-29T03:07:00.435Z,6.65
2022-10-29T03:09:27.056Z,6.64
2022-10-29T03:11:53.746Z,6.76
2022-10-29T03:14:20.403Z,6.83
2022-10-29T03:16:47.103Z,6.82
2022-10-29T03:19:13.719Z,6.72
2022-10-29T03:21:40.403Z,6.74
2022-10-29T03:24:07.343Z,6.75
2022-10-29T03:26:34.086Z,6.81
2022-10-29T03:29:00.967Z,6.83
2022-10-29T03:31:27.697Z,6.87
2022-10-29T03:33:54.396Z,6.90
2022-10-29T03:36:21.194Z,6.92
2022-10-29T03:38:48.044Z,6.89
2022-10-29T03:41:14.857Z,6.85
2022-10-29T03:43:41.602Z,6.69
2022-10-29T03:46:08.827Z,6.73
2022-10-29T03:48:35.697Z,6.78
2022-10-29T03:51:06.020Z,6.70
2022-10-29T03:53:34.426Z,6.70
2022-10-29T03:56:01.185Z,6.86
2022-10-29T03:58:28.236Z,6.76
2022-10-29T04:00:59.400Z,6.71
2022-10-29T04:03:27.455Z,6.83
2022-10-29T04:05:54.225Z,6.89
2022-10-29T04:08:20.945Z,6.92
2022-10-29T04:10:48.711Z,6.91
2022-10-29T04:13:15.873Z,6.74
2022-10-29T04:15:42.724Z,6.77
2022-10-29T04:18:10.778Z,6.90
2022-10-29T04:21:08.735Z,6.95
2022-10-29T04:28:58.473Z,6.95
2022-10-29T04:31:25.107Z,6.84
2022-10-29T04:33:53.274Z,6.98
2022-10-29T04:36:19.878Z,6.91
2022-10-29T04:38:46.502Z,6.73
2022-10-29T04:41:13.081Z,6.57
2022-10-29T04:43:39.681Z,6.46
2022-10-29T04:46:06.304Z,6.48
2022-10-29T04:48:33.134Z,6.39
2022-10-29T04:50:59.769Z,6.58
2022-10-29T04:53:26.346Z,6.52
2022-10-29T04:56:01.532Z,6.43
2022-10-29T04:58:28.482Z,6.57
2022-10-29T05:01:01.298Z,6.56
2022-10-29T05:03:27.971Z,6.66
2022-10-29T05:05:54.538Z,6.58
2022-10-29T05:08:21.629Z,6.70
2022-10-29T05:10:48.210Z,6.64
2022-10-29T05:13:15.090Z,6.46
2022-10-29T05:15:42.057Z,6.34
2022-10-29T05:18:10.178Z,6.35
2022-10-29T05:20:36.805Z,6.22
2022-10-29T05:23:08.513Z,6.30
2022-10-29T05:25:37.203Z,6.39
2022-10-29T05:28:21.199Z,6.50
2022-10-29T05:30:49.732Z,6.34
2022-10-29T05:33:19.358Z,6.39
2022-10-29T05:35:46.443Z,6.33
2022-10-29T05:38:14.619Z,6.39
2022-10-29T05:40:42.833Z,6.43
2022-10-29T05:43:09.428Z,6.35
2022-10-29T05:45:36.045Z,6.38
2022-10-29T05:48:04.181Z,6.37
2022-10-29T05:50:32.100Z,6.43
2022-10-29T05:53:00.617Z,6.49
2022-10-29T05:55:28.015Z,6.46
2022-10-29T05:58:05.146Z,6.32
2022-10-29T06:00:34.737Z,6.47
2022-10-29T06:03:01.902Z,6.51
2022-10-29T06:05:28.960Z,6.50
2022-10-29T06:07:59.999Z,6.37
2022-10-29T06:10:28.904Z,6.41
2022-10-29T06:12:55.770Z,6.48
2022-10-29T06:15:23.131Z,6.47
2022-10-29T06:17:50.154Z,6.42
2022-10-29T06:20:21.037Z,6.33
2022-10-29T06:22:48.251Z,6.36
2022-10-29T06:25:14.866Z,6.43
2022-10-29T06:27:41.641Z,6.50
2022-10-29T06:30:08.982Z,6.49
2022-10-29T06:32:35.622Z,6.38
2022-10-29T06:35:02.276Z,6.22
2022-10-29T06:37:29.785Z,6.32
2022-10-29T06:39:56.451Z,6.37
2022-10-29T06:42:23.023Z,6.55
2022-10-29T06:44:49.583Z,6.62
2022-10-29T06:47:16.350Z,6.50
2022-10-29T06:49:42.923Z,6.52
2022-10-29T06:52:09.487Z,6.62
2022-10-29T06:54:36.168Z,6.71
2022-10-29T06:57:02.831Z,6.73
2022-10-29T06:59:29.460Z,6.75
2022-10-29T07:01:56.174Z,6.82
2022-10-29T07:04:22.907Z,6.73
2022-10-29T07:06:49.523Z,6.85
2022-10-29T07:09:16.168Z,7.08
2022-10-29T07:11:42.800Z,7.07
2022-10-29T07:14:10.048Z,7.06
2022-10-29T07:16:36.978Z,6.77
2022-10-29T07:19:04.352Z,6.85
2022-10-29T07:21:31.088Z,7.09
2022-10-29T07:23:57.779Z,6.90
2022-10-29T07:26:24.536Z,6.75
2022-10-29T07:28:51.107Z,6.91
2022-10-29T07:31:17.876Z,6.91
2022-10-29T07:33:44.587Z,6.88
2022-10-29T07:36:11.293Z,7.05
2022-10-29T07:38:39.441Z,7.15
2022-10-29T07:41:06.292Z,7.18
2022-10-29T07:43:33.102Z,7.14
2022-10-29T07:45:59.892Z,7.37
2022-10-29T07:48:26.672Z,7.22
2022-10-29T07:50:53.403Z,7.17
2022-10-29T07:53:20.132Z,7.10
2022-10-29T07:55:53.173Z,7.28
2022-10-29T07:58:19.920Z,7.38
2022-10-29T08:00:46.662Z,7.41
2022-10-29T08:03:13.922Z,7.67
2022-10-29T08:05:42.794Z,7.74
2022-10-29T08:08:10.003Z,7.69
2022-10-29T08:10:36.789Z,7.72
2022-10-29T08:13:04.847Z,7.75
2022-10-29T08:15:33.211Z,7.91
2022-10-29T08:18:00.005Z,8.02
2022-10-29T08:20:28.170Z,8.04
2022-10-29T08:22:55.508Z,7.88
2022-10-29T08:25:22.603Z,7.77
2022-10-29T08:28:19.052Z,8.08
2022-10-29T08:30:49.904Z,8.31
2022-10-29T08:33:17.304Z,8.49
2022-10-29T08:35:44.063Z,8.44
2022-10-29T08:38:10.764Z,8.85
2022-10-29T08:40:55.743Z,9.41
2022-10-29T08:43:25.283Z,9.42
2022-10-29T08:45:53.394Z,9.26
2022-10-29T08:48:22.952Z,9.56
2022-10-29T08:51:26.211Z,9.10
2022-10-29T08:54:24.932Z,9.39
2022-10-29T08:56:54.302Z,9.61
2022-10-29T08:59:25.501Z,9.13
2022-10-29T09:01:53.917Z,9.14
2022-10-29T09:04:25.282Z,9.37
2022-10-29T09:07:12.242Z,9.82
2022-10-29T09:10:11.310Z,9.82
2022-10-29T09:12:56.610Z,10.01
2022-10-29T09:15:38.261Z,10.07
2022-10-29T09:18:15.421Z,10.22
2022-10-29T09:21:22.475Z,10.53
2022-10-29T09:24:08.896Z,10.30
2022-10-29T09:26:48.384Z,9.59
2022-10-29T09:29:27.554Z,9.61
2022-10-29T09:32:14.964Z,9.65
2022-10-29T09:34:45.114Z,9.58
2022-10-29T09:37:30.351Z,9.53
2022-10-29T09:39:58.742Z,9.75
2022-10-29T09:42:46.491Z,9.80
2022-10-29T09:45:16.574Z,9.86
2022-10-29T09:47:53.818Z,10.17
2022-10-29T09:50:29.251Z,10.49
2022-10-29T09:52:56.330Z,11.12
2022-10-29T09:55:34.283Z,11.48
2022-10-29T09:58:01.153Z,12.31
2022-10-29T10:00:32.199Z,12.37
2022-10-29T10:03:06.934Z,13.14
2022-10-29T10:05:35.572Z,13.26
2022-10-29T10:08:13.762Z,13.10
2022-10-29T10:10:57.937Z,12.94
2022-10-29T10:13:33.303Z,12.63
2022-10-29T10:16:02.346Z,13.11
2022-10-29T10:18:32.062Z,13.02
2022-10-29T10:21:29.358Z,13.20
2022-10-29T10:24:00.591Z,13.52
2022-10-29T10:26:39.495Z,13.16
2022-10-29T10:29:17.849Z,12.56
2022-10-29T10:31:46.928Z,12.49
2022-10-29T10:34:18.160Z,12.30
2022-10-29T10:36:57.465Z,12.34
2022-10-29T10:39:31.177Z,12.64
2022-10-29T10:41:59.950Z,13.04
2022-10-29T10:44:27.481Z,13.42
2022-10-29T10:46:56.243Z,14.26
2022-10-29T10:49:30.462Z,14.82
2022-10-29T10:51:58.284Z,14.43
2022-10-29T10:54:39.257Z,14.57
2022-10-29T10:57:12.251Z,14.61
2022-10-29T10:59:54.930Z,13.93
2022-10-29T11:02:24.692Z,13.74
2022-10-29T11:05:00.881Z,13.69
2022-10-29T11:07:34.523Z,13.70
2022-10-29T11:10:04.233Z,13.92
2022-10-29T11:12:33.370Z,14.20
2022-10-29T11:15:10.591Z,14.46
2022-10-29T11:18:00.928Z,14.32
2022-10-29T11:20:35.302Z,14.28
2022-10-29T11:23:23.520Z,14.20
2022-10-29T11:26:34.554Z,13.90
2022-10-29T11:29:11.735Z,14.03
2022-10-29T11:31:48.032Z,13.89
2022-10-29T11:34:33.334Z,14.03
2022-10-29T11:37:17.853Z,13.96
2022-10-29T11:40:05.025Z,14.14
2022-10-29T11:42:31.883Z,14.13
2022-10-29T11:44:59.369Z,14.09
2022-10-29T11:47:50.623Z,14.09
2022-10-29T11:50:41.312Z,13.96
2022-10-29T11:53:15.532Z,13.91
2022-10-29T11:56:11.951Z,13.97
2022-10-29T11:58:53.051Z,13.82
2022-10-29T12:01:45.099Z,13.98
2022-10-29T12:04:24.247Z,14.01
2022-10-29T12:07:22.162Z,13.99
2022-10-29T12:10:15.580Z,14.10
2022-10-29T12:12:49.500Z,14.17
2022-10-29T12:15:24.243Z,14.13
2022-10-29T12:18:00.932Z,14.11
2022-10-29T12:20:37.595Z,14.20
2022-10-29T12:23:25.474Z,14.33
2022-10-29T12:26:09.712Z,14.46
2022-10-29T12:28:36.381Z,14.18
2022-10-29T12:31:20.478Z,14.27
2022-10-29T12:34:16.372Z,14.57
2022-10-29T12:36:53.436Z,14.89
2022-10-29T12:39:30.092Z,15.00
2022-10-29T12:42:17.170Z,14.84
2022-10-29T12:45:22.612Z,14.74
2022-10-29T12:47:51.391Z,14.68
2022-10-29T12:50:21.194Z,14.79
2022-10-29T12:53:29.213Z,14.92
2022-10-29T12:55:57.413Z,14.83
2022-10-29T12:58:43.053Z,14.85
2022-10-29T13:01:57.212Z,14.77
2022-10-29T13:04:31.942Z,14.63
2022-10-29T13:07:18.780Z,14.68
2022-10-29T13:09:48.367Z,14.56
2022-10-29T13:12:55.842Z,14.45
2022-10-29T13:16:04.484Z,14.43
2022-10-29T13:18:41.689Z,14.39
2022-10-29T13:21:09.119Z,14.61
2022-10-29T13:23:37.655Z,14.54
2022-10-29T13:26:06.143Z,14.59
2022-10-29T13:28:35.852Z,14.55
2022-10-29T13:31:08.664Z,14.55
2022-10-29T13:33:38.420Z,14.54
2022-10-29T13:36:17.426Z,14.53
2022-10-29T13:39:05.033Z,14.48
2022-10-29T13:41:43.215Z,14.47
2022-10-29T13:44:26.653Z,14.47
2022-10-29T13:47:02.226Z,14.51
2022-10-29T13:49:33.093Z,14.47
2022-10-29T13:52:08.802Z,14.49
2022-10-29T13:54:55.233Z,14.52
2022-10-29T13:57:29.062Z,14.49
2022-10-29T14:00:08.177Z,14.45
2022-10-29T14:02:43.620Z,14.43
2022-10-29T14:05:16.393Z,14.51
2022-10-29T14:07:56.692Z,14.57
2022-10-29T14:10:26.586Z,14.61
2022-10-29T14:13:01.692Z,14.61
2022-10-29T14:15:28.421Z,14.67
2022-10-29T14:17:55.213Z,14.75
2022-10-29T14:20:26.884Z,14.81
2022-10-29T14:22:54.123Z,14.78
2022-10-29T14:25:35.741Z,14.88
2022-10-29T14:28:32.561Z,14.90
2022-10-29T14:31:16.743Z,14.80
2022-10-29T14:33:52.630Z,14.80
2022-10-29T14:36:25.160Z,14.80
2022-10-29T14:39:00.383Z,14.82
2022-10-29T14:41:29.538Z,14.77
2022-10-29T14:44:09.827Z,14.74
2022-10-29T14:46:37.836Z,14.71
2022-10-29T14:49:21.899Z,14.64
2022-10-29T14:51:53.585Z,14.51
2022-10-29T14:54:25.119Z,14.47
2022-10-29T14:56:56.483Z,14.46
2022-10-29T14:59:28.214Z,14.46
2022-10-29T15:02:05.588Z,14.38
2022-10-29T15:04:47.993Z,14.27
2022-10-29T15:07:22.871Z,14.16
2022-10-29T15:09:51.151Z,14.09
2022-10-29T15:12:36.003Z,13.91
2022-10-29T15:15:18.064Z,13.83
2022-10-29T15:17:52.965Z,13.83
2022-10-29T15:20:25.280Z,13.74
2022-10-29T15:22:56.243Z,13.59
2022-10-29T15:25:34.512Z,13.46
2022-10-29T15:28:01.881Z,13.42
2022-10-29T15:30:33.330Z,13.41
2022-10-29T15:33:01.481Z,13.46
2022-10-29T15:35:28.483Z,13.37
2022-10-29T15:37:55.584Z,13.28
2022-10-29T15:40:25.050Z,13.27
2022-10-29T15:42:52.663Z,13.28
2022-10-29T15:45:20.576Z,13.19
2022-10-29T15:47:58.844Z,13.16
2022-10-29T15:50:47.584Z,13.09
2022-10-29T15:53:16.072Z,13.08
2022-10-29T15:55:43.520Z,13.00
2022-10-29T15:58:18.102Z,12.95
2022-10-29T16:00:44.903Z,12.82
2022-10-29T16:03:21.379Z,12.86
2022-10-29T16:05:50.399Z,12.93
2022-10-29T16:08:37.119Z,12.89
2022-10-29T16:11:07.963Z,12.78
2022-10-29T16:13:35.201Z,12.81
2022-10-29T16:16:02.176Z,12.86
2022-10-29T16:18:28.959Z,12.74
2022-10-29T16:21:00.271Z,12.79
2022-10-29T16:23:27.051Z,12.78
2022-10-29T16:25:53.794Z,12.72
2022-10-29T16:28:20.582Z,12.61
2022-10-29T16:30:50.815Z,12.51
2022-10-29T16:33:18.132Z,12.32
2022-10-29T16:35:44.865Z,12.37
2022-10-29T16:38:12.605Z,12.26
2022-10-29T16:40:39.612Z,12.21
2022-10-29T16:43:06.354Z,12.15
2022-10-29T16:45:33.111Z,12.19
2022-10-29T16:48:00.158Z,12.10
2022-10-29T16:50:34.638Z,12.04
2022-10-29T16:53:02.315Z,11.93
2022-10-29T16:55:29.839Z,11.87
2022-10-29T16:57:57.238Z,11.75
2022-10-29T17:00:26.042Z,11.71
2022-10-29T17:02:53.059Z,11.66
2022-10-29T17:05:19.853Z,11.62
2022-10-29T17:07:46.554Z,11.60
2022-10-29T17:10:13.231Z,11.54
2022-10-29T17:12:39.939Z,11.57
2022-10-29T17:15:07.506Z,11.55
2022-10-29T17:17:34.265Z,11.53
2022-10-29T17:20:01.013Z,11.49
2022-10-29T17:22:27.679Z,11.38
2022-10-29T17:24:54.353Z,11.26
2022-10-29T17:27:21.121Z,11.26
2022-10-29T17:29:48.084Z,11.23
2022-10-29T17:32:15.054Z,11.16
2022-10-29T17:34:41.731Z,11.18
2022-10-29T17:37:09.385Z,11.18
2022-10-29T17:39:36.132Z,11.09
2022-10-29T17:42:02.882Z,11.05
2022-10-29T17:44:30.942Z,10.84
2022-10-29T17:46:57.743Z,10.96
2022-10-29T17:49:25.857Z,10.93
2022-10-29T17:51:53.163Z,10.86
2022-10-29T17:54:21.415Z,10.89
2022-10-29T17:56:49.184Z,11.01
2022-10-29T17:59:15.982Z,10.72
2022-10-29T18:01:44.212Z,10.60
2022-10-29T18:04:11.233Z,10.62
2022-10-29T18:06:38.076Z,10.69
2022-10-29T18:09:04.864Z,10.66
2022-10-29T18:11:31.662Z,10.71
2022-10-29T18:13:58.459Z,10.64
2022-10-29T18:16:27.340Z,10.65
2022-10-29T18:19:01.995Z,10.60
2022-10-29T18:21:30.370Z,10.66
2022-10-29T18:23:57.183Z,10.50
2022-10-29T18:26:25.403Z,10.53
2022-10-29T18:28:53.623Z,10.50
2022-10-29T18:31:21.102Z,10.56
2022-10-29T18:33:48.100Z,10.54
2022-10-29T18:36:14.852Z,10.56
2022-10-29T18:38:41.771Z,10.54
2022-10-29T18:41:09.082Z,10.48
2022-10-29T18:43:36.054Z,10.48
2022-10-29T18:46:05.237Z,10.38
2022-10-29T18:48:32.853Z,10.43
2022-10-29T18:51:20.217Z,10.39
2022-10-29T18:53:47.126Z,10.37
2022-10-29T18:56:15.971Z,10.32
2022-10-29T18:58:43.400Z,10.31
2022-10-29T19:01:17.848Z,10.27
2022-10-29T19:03:49.361Z,10.27
2022-10-29T19:06:16.104Z,10.27
2022-10-29T19:08:43.939Z,10.26
2022-10-29T19:11:16.232Z,10.01
2022-10-29T19:13:42.842Z,10.00
2022-10-29T19:16:11.653Z,9.97
2022-10-29T19:18:39.523Z,10.02
2022-10-29T19:21:11.641Z,10.04
2022-10-29T19:23:38.668Z,10.08
2022-10-29T19:26:09.654Z,10.02
2022-10-29T19:28:36.713Z,10.07
2022-10-29T19:31:07.399Z,9.98
2022-10-29T19:33:34.631Z,10.05
2022-10-29T19:36:01.909Z,9.91
2022-10-29T19:38:28.771Z,9.92
2022-10-29T19:40:58.495Z,9.89
2022-10-29T19:43:26.005Z,9.88
2022-10-29T19:45:53.142Z,9.84
2022-10-29T19:48:19.914Z,9.82
2022-10-29T19:50:53.848Z,9.79
2022-10-29T19:53:21.261Z,9.76
2022-10-29T19:55:50.581Z,9.72
2022-10-29T19:58:18.291Z,9.70
2022-10-29T20:00:45.016Z,9.66
2022-10-29T20:03:12.427Z,9.63
2022-10-29T20:05:42.637Z,9.67
2022-10-29T20:08:11.512Z,9.63
2022-10-29T20:10:41.472Z,9.71
2022-10-29T20:13:08.173Z,9.62
2022-10-29T20:15:34.874Z,9.60
2022-10-29T20:18:01.487Z,9.62
2022-10-29T20:20:28.175Z,9.58
2022-10-29T20:22:55.127Z,9.60
2022-10-29T20:25:24.015Z,9.43
2022-10-29T20:27:51.009Z,9.38
2022-10-29T20:30:17.863Z,9.46
2022-10-29T20:32:44.465Z,9.42
2022-10-29T20:35:11.078Z,9.26
2022-10-29T20:37:37.936Z,9.27
2022-10-29T20:40:05.499Z,9.15
2022-10-29T20:42:32.246Z,9.19
2022-10-29T20:44:58.861Z,9.15
2022-10-29T20:47:25.467Z,9.09
2022-10-29T20:49:52.082Z,9.11
2022-10-29T20:52:18.672Z,9.08
2022-10-29T20:54:45.289Z,9.00
2022-10-29T20:57:11.903Z,8.98
2022-10-29T20:59:38.504Z,9.00
2022-10-29T21:02:05.268Z,8.99
2022-10-29T21:04:31.949Z,8.95
2022-10-29T21:06:58.526Z,8.92
2022-10-29T21:09:25.102Z,8.92
2022-10-29T21:11:51.713Z,8.95
2022-10-29T21:14:18.345Z,8.91
2022-10-29T21:16:44.977Z,8.92
2022-10-29T21:19:11.604Z,8.84
2022-10-29T21:21:39.987Z,8.86
2022-10-29T21:24:06.738Z,8.87
2022-10-29T21:26:33.289Z,8.79
2022-10-29T21:28:59.880Z,8.82
2022-10-29T21:31:26.641Z,8.86
2022-10-29T21:33:54.019Z,8.88
2022-10-29T21:36:21.267Z,8.86
2022-10-29T21:38:48.360Z,8.76
2022-10-29T21:41:15.368Z,8.71
2022-10-29T21:43:41.929Z,8.71
2022-10-29T21:46:08.505Z,8.71
2022-10-29T21:48:35.338Z,8.69
2022-10-29T21:51:07.267Z,8.79
2022-10-29T21:53:34.434Z,8.71
2022-10-29T21:56:02.775Z,8.61
2022-10-29T21:58:29.943Z,8.59
2022-10-29T22:01:07.586Z,8.62
2022-10-29T22:03:35.060Z,8.64
2022-10-29T22:06:05.747Z,8.66
2022-10-29T22:08:33.092Z,8.66
2022-10-29T22:11:00.122Z,8.69
2022-10-29T22:13:30.573Z,8.70
2022-10-29T22:15:57.272Z,8.63
2022-10-29T22:18:24.836Z,8.60
2022-10-29T22:21:04.017Z,8.58
2022-10-29T22:23:30.664Z,8.65
2022-10-29T22:25:57.277Z,8.65
2022-10-29T22:28:23.947Z,8.43
2022-10-29T22:30:57.529Z,8.47
2022-10-29T22:33:24.123Z,8.48
2022-10-29T22:35:50.721Z,8.46
2022-10-29T22:38:17.959Z,8.48
2022-10-29T22:40:44.517Z,8.46
2022-10-29T22:43:12.100Z,8.45
2022-10-29T22:45:38.746Z,8.29
2022-10-29T22:48:05.635Z,8.29
2022-10-29T22:50:32.235Z,8.30
2022-10-29T22:52:59.073Z,8.32
2022-10-29T22:55:25.863Z,8.34
2022-10-29T22:57:52.485Z,8.26
2022-10-29T23:00:19.228Z,8.21
2022-10-29T23:02:45.839Z,8.12
2022-10-29T23:05:12.564Z,8.09
2022-10-29T23:07:39.245Z,8.06
2022-10-29T23:10:07.470Z,7.99
2022-10-29T23:12:34.173Z,7.88
2022-10-29T23:15:00.860Z,7.88
2022-10-29T23:17:27.533Z,7.86
2022-10-29T23:19:56.350Z,7.92
2022-10-29T23:22:26.409Z,7.94
2022-10-29T23:24:54.331Z,7.93
2022-10-29T23:27:20.977Z,7.96
2022-10-29T23:29:47.575Z,7.92
2022-10-29T23:32:14.404Z,7.86
2022-10-29T23:34:41.131Z,7.84
2022-10-29T23:37:09.908Z,7.85
2022-10-29T23:39:37.088Z,7.67
2022-10-29T23:42:04.145Z,7.67
2022-10-29T23:44:30.736Z,7.68
2022-10-29T23:46:57.353Z,7.70
2022-10-29T23:49:24.057Z,7.69
2022-10-29T23:51:50.709Z,7.59
2022-10-29T23:54:17.429Z,7.58
2022-10-29T23:56:44.089Z,7.66
2022-10-29T23:59:10.922Z,7.64
